Sikinos — 9HA2865 — position and weather

sailwx.info

Track history (hours):
 
Tides and Currents Weather Stations Pressure Air Temp Water Temp Dewpoint Dewpoint Depression Visibility Wind Speed Wind Dir Waves Ship Positions

Sikinos

Last reported at 2015-Mar-02 00:31 UTC. Time now 2015-Mar-02 01:00 UTC.
Position N 51°27' E 003°43'.

Length 90 m; draft 5 m.

Type: Ship (hazmat cat A). MMSI: 256462000.

Date/timePositionNaut miles runAvg speedWind from/ knotsBaromVisibWave heightAir tempDewpointWater temp
2015-Mar-02 00:31N 51°27' E 003°43'0 0.0
2015-Mar-01 23:31N 51°27' E 003°43'0 0.0
2015-Mar-01 22:28N 51°27' E 003°43'0 0.0
2015-Mar-01 21:31N 51°27' E 003°43'0 0.0
2015-Mar-01 20:31N 51°27' E 003°43'0 0.0
2015-Mar-01 19:31N 51°27' E 003°43'0 0.0
2015-Mar-01 18:25N 51°27' E 003°43'0 0.0
2015-Mar-01 17:31N 51°27' E 003°43'0 0.0
2015-Mar-01 16:31N 51°27' E 003°43'0 0.0
2015-Mar-01 15:26N 51°27' E 003°43'0 0.0
2015-Mar-01 14:31N 51°27' E 003°43'0 0.0
2015-Mar-01 13:31N 51°27' E 003°43'0 0.0
2015-Mar-01 12:31N 51°27' E 003°43'0 0.0
2015-Mar-01 11:31N 51°27' E 003°43'0 0.0
2015-Mar-01 10:31N 51°27' E 003°43'0 0.0
2015-Mar-01 09:31N 51°27' E 003°43'0 0.0
2015-Mar-01 08:31N 51°27' E 003°43'0 0.0
2015-Mar-01 07:28N 51°27' E 003°43'0 0.0
2015-Mar-01 06:31N 51°27' E 003°43'0 0.0
2015-Mar-01 05:31N 51°27' E 003°43'0 0.0
2015-Mar-01 04:28N 51°27' E 003°43'0 0.0
2015-Mar-01 03:22N 51°27' E 003°43'0 0.0
2015-Mar-01 02:28N 51°27' E 003°43'0 0.0
2015-Mar-01 01:31N 51°27' E 003°43'0 0.0
2015-Mar-01 00:31N 51°27' E 003°43'0 0.0
2015-Feb-28 23:31N 51°27' E 003°43'0 0.0
2015-Feb-28 22:31N 51°27' E 003°43'0 0.0
2015-Feb-28 21:31N 51°27' E 003°43'0 0.0
2015-Feb-28 20:31N 51°27' E 003°43'0 0.0
2015-Feb-28 19:33N 51°27' E 003°43'7 7.2
2015-Feb-28 18:33N 51°25' E 003°32'1212.0
2015-Feb-28 17:32N 51°24' E 003°12'1111.0
2015-Feb-28 16:33N 51°22' E 002°56'1010.2
2015-Feb-28 15:33N 51°22' E 002°39'7 7.4
2015-Feb-28 14:32N 51°21' E 002°27'1411.8
2015-Feb-28 13:23N 51°14' E 002°08'1011.8
2015-Feb-28 12:33N 51°09' E 001°55'1312.9
2015-Feb-28 11:33N 51°01' E 001°39'14311.0
2015-Feb-27 22:34N 50°28' W 002°02'1010.3
2015-Feb-27 21:33N 50°33' W 002°17'  
2015-Feb-25 10:12N 50°34' W 002°20'710.4
2015-Feb-25 09:31N 50°31' W 002°11'3712.3
2015-Feb-25 06:33N 50°30' W 001°14'1313.3
2015-Feb-25 05:33N 50°30' W 000°53'1212.5
2015-Feb-25 04:33N 50°30' W 000°33'32 9.7
2015-Feb-25 01:16N 50°35' E 000°17'6 8.5
2015-Feb-25 00:34N 50°37' E 000°26'9 9.3
2015-Feb-24 23:34N 50°41' E 000°39'1110.9
2015-Feb-24 22:33N 50°47' E 000°53'1512.0
2015-Feb-24 21:19N 50°56' E 001°13'911.9
2015-Feb-24 20:33N 51°02' E 001°23'1110.7
2015-Feb-24 19:34N 51°09' E 001°36'10 9.6
2015-Feb-24 18:34N 51°15' E 001°47'9 8.9
2015-Feb-24 17:33N 51°22' E 001°56'8 7.5
2015-Feb-24 16:32N 51°23' E 002°09'10 8.8
2015-Feb-24 15:26N 51°22' E 002°24'10 9.7
2015-Feb-24 14:22N 51°23' E 002°41'810.3
2015-Feb-24 13:33N 51°22' E 002°54'1111.1
2015-Feb-24 12:33N 51°22' E 003°12'2 0.1
2015-Feb-23 23:27N 51°20' E 003°12'1 0.6
2015-Feb-23 21:30N 51°19' E 003°13'1 0.1
2015-Feb-23 17:07N 51°19' E 003°13'0 0.0
2015-Feb-23 16:31N 51°19' E 003°13'1 0.7
2015-Feb-23 15:33N 51°20' E 003°13'1 0.8
2015-Feb-23 14:34N 51°20' E 003°12'0 0.0
2015-Feb-22 19:24N 51°20' E 003°12'1 0.7
2015-Feb-22 18:08N 51°20' E 003°13'1 1.0
2015-Feb-22 17:32N 51°19' E 003°13'2 0.2
2015-Feb-22 07:33N 51°18' E 003°14'1 0.6
2015-Feb-22 06:33N 51°18' E 003°14'0 0.0
2015-Feb-22 00:21N 51°19' E 003°14'2 2.0
2015-Feb-21 23:33N 51°20' E 003°13'0 0.3
2015-Feb-21 22:33N 51°20' E 003°13'1 0.2
2015-Feb-21 18:16N 51°21' E 003°12'1 1.0
2015-Feb-21 17:33N 51°20' E 003°12'1 0.1
2015-Feb-21 03:34N 51°21' E 003°12'1211.9
2015-Feb-21 02:33N 51°22' E 002°53'1010.2
2015-Feb-21 01:33N 51°22' E 002°37'8 7.9
2015-Feb-21 00:30N 51°20' E 002°24'1311.7
2015-Feb-20 23:24N 51°14' E 002°06'8 9.9
2015-Feb-20 22:34N 51°09' E 001°55'8 7.9
2015-Feb-20 21:33N 51°03' E 001°46'1313.0
2015-Feb-20 20:33N 51°03' E 002°07'9 8.6
2015-Feb-20 19:31N 51°03' E 002°21'1 0.1
2015-Feb-20 07:33N 51°03' E 002°20'1 0.8
2015-Feb-20 06:22N 51°04' E 002°21'1810.1
2015-Feb-20 04:33N 51°01' E 001°52'9 8.9
2015-Feb-20 03:33N 51°01' E 001°38'  
Track history (hours):
 
Tides and Currents Weather Stations Pressure Air Temp Water Temp Dewpoint Dewpoint Depression Visibility Wind Speed Wind Dir Waves Ship Positions

Sikinos

Last reported at 2015-Mar-02 00:31 UTC. Time now 2015-Mar-02 01:00 UTC.
Position N 51°27' E 003°43'.

Length 90 m; draft 5 m.

Type: Ship (hazmat cat A). MMSI: 256462000.

Date/timePositionNaut miles runAvg speedWind from/ knotsBaromVisibWave heightAir tempDewpointWater temp
2015-Mar-02 00:31N 51°27' E 003°43'0 0.0
2015-Mar-01 23:31N 51°27' E 003°43'0 0.0
2015-Mar-01 22:28N 51°27' E 003°43'0 0.0
2015-Mar-01 21:31N 51°27' E 003°43'0 0.0
2015-Mar-01 20:31N 51°27' E 003°43'0 0.0
2015-Mar-01 19:31N 51°27' E 003°43'0 0.0
2015-Mar-01 18:25N 51°27' E 003°43'0 0.0
2015-Mar-01 17:31N 51°27' E 003°43'0 0.0
2015-Mar-01 16:31N 51°27' E 003°43'0 0.0
2015-Mar-01 15:26N 51°27' E 003°43'0 0.0
2015-Mar-01 14:31N 51°27' E 003°43'0 0.0
2015-Mar-01 13:31N 51°27' E 003°43'0 0.0
2015-Mar-01 12:31N 51°27' E 003°43'0 0.0
2015-Mar-01 11:31N 51°27' E 003°43'0 0.0
2015-Mar-01 10:31N 51°27' E 003°43'0 0.0
2015-Mar-01 09:31N 51°27' E 003°43'0 0.0
2015-Mar-01 08:31N 51°27' E 003°43'0 0.0
2015-Mar-01 07:28N 51°27' E 003°43'0 0.0
2015-Mar-01 06:31N 51°27' E 003°43'0 0.0
2015-Mar-01 05:31N 51°27' E 003°43'0 0.0
2015-Mar-01 04:28N 51°27' E 003°43'0 0.0
2015-Mar-01 03:22N 51°27' E 003°43'0 0.0
2015-Mar-01 02:28N 51°27' E 003°43'0 0.0
2015-Mar-01 01:31N 51°27' E 003°43'0 0.0
2015-Mar-01 00:31N 51°27' E 003°43'0 0.0
2015-Feb-28 23:31N 51°27' E 003°43'0 0.0
2015-Feb-28 22:31N 51°27' E 003°43'0 0.0
2015-Feb-28 21:31N 51°27' E 003°43'0 0.0
2015-Feb-28 20:31N 51°27' E 003°43'0 0.0
2015-Feb-28 19:33N 51°27' E 003°43'7 7.2
2015-Feb-28 18:33N 51°25' E 003°32'1212.0
2015-Feb-28 17:32N 51°24' E 003°12'1111.0
2015-Feb-28 16:33N 51°22' E 002°56'1010.2
2015-Feb-28 15:33N 51°22' E 002°39'7 7.4
2015-Feb-28 14:32N 51°21' E 002°27'1411.8
2015-Feb-28 13:23N 51°14' E 002°08'1011.8
2015-Feb-28 12:33N 51°09' E 001°55'1312.9
2015-Feb-28 11:33N 51°01' E 001°39'14311.0
2015-Feb-27 22:34N 50°28' W 002°02'1010.3
2015-Feb-27 21:33N 50°33' W 002°17'  
2015-Feb-25 10:12N 50°34' W 002°20'710.4
2015-Feb-25 09:31N 50°31' W 002°11'3712.3
2015-Feb-25 06:33N 50°30' W 001°14'1313.3
2015-Feb-25 05:33N 50°30' W 000°53'1212.5
2015-Feb-25 04:33N 50°30' W 000°33'32 9.7
2015-Feb-25 01:16N 50°35' E 000°17'6 8.5
2015-Feb-25 00:34N 50°37' E 000°26'9 9.3
2015-Feb-24 23:34N 50°41' E 000°39'1110.9
2015-Feb-24 22:33N 50°47' E 000°53'1512.0
2015-Feb-24 21:19N 50°56' E 001°13'911.9
2015-Feb-24 20:33N 51°02' E 001°23'1110.7
2015-Feb-24 19:34N 51°09' E 001°36'10 9.6
2015-Feb-24 18:34N 51°15' E 001°47'9 8.9
2015-Feb-24 17:33N 51°22' E 001°56'8 7.5
2015-Feb-24 16:32N 51°23' E 002°09'10 8.8
2015-Feb-24 15:26N 51°22' E 002°24'10 9.7
2015-Feb-24 14:22N 51°23' E 002°41'810.3
2015-Feb-24 13:33N 51°22' E 002°54'1111.1
2015-Feb-24 12:33N 51°22' E 003°12'2 0.1
2015-Feb-23 23:27N 51°20' E 003°12'1 0.6
2015-Feb-23 21:30N 51°19' E 003°13'1 0.1
2015-Feb-23 17:07N 51°19' E 003°13'0 0.0
2015-Feb-23 16:31N 51°19' E 003°13'1 0.7
2015-Feb-23 15:33N 51°20' E 003°13'1 0.8
2015-Feb-23 14:34N 51°20' E 003°12'0 0.0
2015-Feb-22 19:24N 51°20' E 003°12'1 0.7
2015-Feb-22 18:08N 51°20' E 003°13'1 1.0
2015-Feb-22 17:32N 51°19' E 003°13'2 0.2
2015-Feb-22 07:33N 51°18' E 003°14'1 0.6
2015-Feb-22 06:33N 51°18' E 003°14'0 0.0
2015-Feb-22 00:21N 51°19' E 003°14'2 2.0
2015-Feb-21 23:33N 51°20' E 003°13'0 0.3
2015-Feb-21 22:33N 51°20' E 003°13'1 0.2
2015-Feb-21 18:16N 51°21' E 003°12'1 1.0
2015-Feb-21 17:33N 51°20' E 003°12'1 0.1
2015-Feb-21 03:34N 51°21' E 003°12'1211.9
2015-Feb-21 02:33N 51°22' E 002°53'1010.2
2015-Feb-21 01:33N 51°22' E 002°37'8 7.9
2015-Feb-21 00:30N 51°20' E 002°24'1311.7
2015-Feb-20 23:24N 51°14' E 002°06'8 9.9
2015-Feb-20 22:34N 51°09' E 001°55'8 7.9
2015-Feb-20 21:33N 51°03' E 001°46'1313.0
2015-Feb-20 20:33N 51°03' E 002°07'9 8.6
2015-Feb-20 19:31N 51°03' E 002°21'1 0.1
2015-Feb-20 07:33N 51°03' E 002°20'1 0.8
2015-Feb-20 06:22N 51°04' E 002°21'1810.1
2015-Feb-20 04:33N 51°01' E 001°52'9 8.9
2015-Feb-20 03:33N 51°01' E 001°38'  

Dump ship's entire track history